createdAt,value
2017-07-15T00:00:12.492Z,0
2017-07-15T00:01:22.855Z,0
2017-07-15T00:02:33.212Z,0
2017-07-15T00:03:43.313Z,0
2017-07-15T00:04:53.670Z,0
2017-07-15T00:06:04.020Z,0
2017-07-15T00:07:14.369Z,0
2017-07-15T00:08:24.410Z,0
2017-07-15T00:09:34.836Z,0
2017-07-15T00:10:45.353Z,0
2017-07-15T00:11:55.733Z,0
2017-07-15T00:13:06.102Z,0
2017-07-15T00:14:16.470Z,0
2017-07-15T00:15:26.837Z,0
2017-07-15T00:16:37.185Z,0
2017-07-15T00:17:47.600Z,0
2017-07-15T00:18:57.981Z,0
2017-07-15T00:20:08.030Z,0
2017-07-15T00:21:18.112Z,0
2017-07-15T00:22:27.822Z,0
2017-07-15T00:23:38.171Z,0
2017-07-15T00:24:48.523Z,0
2017-07-15T00:25:58.856Z,0
2017-07-15T00:27:09.269Z,0
2017-07-15T00:28:19.616Z,0
2017-07-15T00:29:29.974Z,0
2017-07-15T00:30:40.006Z,0
2017-07-15T00:31:49.741Z,0
2017-07-15T00:33:00.096Z,0
2017-07-15T00:34:10.448Z,0
2017-07-15T00:35:20.491Z,0
2017-07-15T00:36:30.849Z,0
2017-07-15T00:37:41.197Z,0
2017-07-15T00:38:51.293Z,0
2017-07-15T00:40:01.650Z,0
2017-07-15T00:41:11.676Z,0
2017-07-15T00:42:22.028Z,0
2017-07-15T00:43:32.398Z,0
2017-07-15T00:44:42.813Z,0
2017-07-15T00:45:53.182Z,0
2017-07-15T00:47:03.529Z,0
2017-07-15T00:48:13.877Z,0
2017-07-15T00:49:24.233Z,0
2017-07-15T00:50:34.634Z,0
2017-07-15T00:51:44.364Z,0
2017-07-15T00:52:54.400Z,0
2017-07-15T00:54:04.757Z,0
2017-07-15T00:55:14.790Z,0
2017-07-15T00:56:24.867Z,0
2017-07-15T00:57:35.221Z,0
2017-07-15T00:58:45.586Z,0
2017-07-15T00:59:55.938Z,0
2017-07-15T01:01:06.321Z,0
2017-07-15T01:02:16.678Z,0
2017-07-15T01:03:26.715Z,0
2017-07-15T01:04:37.084Z,0
2017-07-15T01:05:47.437Z,0
2017-07-15T01:06:57.469Z,0
2017-07-15T01:08:07.841Z,0
2017-07-15T01:09:18.190Z,0
2017-07-15T01:10:28.532Z,0
2017-07-15T01:11:38.561Z,0
2017-07-15T01:12:48.926Z,0
2017-07-15T01:13:59.038Z,0
2017-07-15T01:15:09.395Z,0
2017-07-15T01:16:19.772Z,0
2017-07-15T01:17:30.117Z,0
2017-07-15T01:18:40.482Z,0
2017-07-15T01:19:50.837Z,0
2017-07-15T01:21:00.555Z,0
2017-07-15T01:22:10.909Z,0
2017-07-15T01:23:21.247Z,0
2017-07-15T01:24:31.613Z,0
2017-07-15T01:25:41.966Z,0
2017-07-15T01:26:52.003Z,0
2017-07-15T01:28:02.030Z,0
2017-07-15T01:29:12.421Z,0
2017-07-15T01:30:22.779Z,0
2017-07-15T01:31:33.183Z,0
2017-07-15T01:32:43.520Z,0
2017-07-15T01:33:53.878Z,0
2017-07-15T01:35:03.904Z,0
2017-07-15T01:36:14.276Z,0
2017-07-15T01:37:24.694Z,0
2017-07-15T01:38:35.056Z,0
2017-07-15T01:39:45.079Z,0
2017-07-15T01:40:55.437Z,0
2017-07-15T01:42:05.781Z,0
2017-07-15T01:43:15.871Z,0
2017-07-15T01:44:25.898Z,0
2017-07-15T01:45:35.638Z,0
2017-07-15T01:46:45.674Z,0
2017-07-15T01:47:56.033Z,0
2017-07-15T01:49:06.348Z,0
2017-07-15T01:50:16.377Z,0
2017-07-15T01:51:26.712Z,0
2017-07-15T01:52:36.751Z,0
2017-07-15T01:53:47.100Z,0
2017-07-15T01:54:57.122Z,0
2017-07-15T01:56:07.465Z,0
2017-07-15T01:57:17.822Z,0
2017-07-15T01:58:28.179Z,0
2017-07-15T01:59:38.550Z,0
2017-07-15T02:00:48.269Z,0
2017-07-15T02:01:58.614Z,0
2017-07-15T02:03:08.665Z,0
2017-07-15T02:04:19.018Z,0
2017-07-15T02:05:29.048Z,0
2017-07-15T02:06:39.074Z,0
2017-07-15T02:07:49.434Z,0
2017-07-15T02:08:59.776Z,0
2017-07-15T02:10:10.134Z,0
2017-07-15T02:11:20.492Z,0
2017-07-15T02:12:30.844Z,0
2017-07-15T02:13:41.197Z,0
2017-07-15T02:14:51.544Z,0
2017-07-15T02:16:01.579Z,0
2017-07-15T02:17:11.968Z,0
2017-07-15T02:18:22.337Z,0
2017-07-15T02:19:32.370Z,0
2017-07-15T02:20:42.410Z,0
2017-07-15T02:21:52.765Z,0
2017-07-15T02:23:03.127Z,0
2017-07-15T02:24:13.471Z,0
2017-07-15T02:25:23.820Z,0
2017-07-15T02:26:33.855Z,0
2017-07-15T02:27:44.208Z,0
2017-07-15T02:28:54.236Z,0
2017-07-15T02:30:04.007Z,0
2017-07-15T02:31:14.342Z,0
2017-07-15T02:32:24.422Z,0
2017-07-15T02:33:34.446Z,0
2017-07-15T02:34:44.792Z,0
2017-07-15T02:35:54.864Z,0
2017-07-15T02:37:04.904Z,0
2017-07-15T02:38:15.243Z,0
2017-07-15T02:39:25.581Z,0
2017-07-15T02:40:35.918Z,4
2017-07-15T02:41:45.941Z,4
2017-07-15T02:42:55.960Z,0
2017-07-15T02:44:06.003Z,4
2017-07-15T02:45:16.044Z,4
2017-07-15T02:46:26.408Z,4
2017-07-15T02:47:36.807Z,8
2017-07-15T02:48:47.158Z,8
2017-07-15T02:49:56.867Z,8
2017-07-15T02:51:07.224Z,8
2017-07-15T02:52:17.587Z,12
2017-07-15T02:53:27.985Z,16
2017-07-15T02:54:38.337Z,20
2017-07-15T02:55:48.378Z,20
2017-07-15T02:56:58.725Z,24
2017-07-15T02:58:08.751Z,28
2017-07-15T02:59:19.162Z,36
2017-07-15T03:00:29.188Z,40
2017-07-15T03:01:39.533Z,48
2017-07-15T03:33:27.193Z,636
2017-07-15T03:34:36.896Z,684
2017-07-15T03:35:47.244Z,732
2017-07-15T03:36:57.608Z,776
2017-07-15T03:38:07.958Z,828
2017-07-15T03:39:17.704Z,876
2017-07-15T03:40:28.074Z,924
2017-07-15T03:41:38.418Z,968
2017-07-15T03:42:48.444Z,1012
2017-07-15T03:43:58.799Z,1064
2017-07-15T03:45:09.199Z,1116
2017-07-15T03:46:19.544Z,1164
2017-07-15T03:47:29.583Z,1216
2017-07-15T03:48:39.936Z,1272
2017-07-15T03:49:50.284Z,1324
2017-07-15T03:51:00.699Z,1376
2017-07-15T03:52:10.436Z,1440
2017-07-15T03:53:20.477Z,1528
2017-07-15T03:54:30.846Z,1620
2017-07-15T03:55:40.236Z,1728
2017-07-15T03:56:50.312Z,1860
2017-07-15T03:58:00.347Z,1948
2017-07-15T03:59:10.692Z,2032
2017-07-15T04:00:21.050Z,2108
2017-07-15T04:01:31.412Z,2184
2017-07-15T04:02:41.489Z,2260
2017-07-15T04:03:51.830Z,2340
2017-07-15T04:05:02.183Z,2420
2017-07-15T04:06:12.548Z,2500
2017-07-15T04:07:22.904Z,2576
2017-07-15T04:08:32.962Z,2644
2017-07-15T04:09:43.308Z,2712
2017-07-15T04:10:53.663Z,2792
2017-07-15T04:12:04.012Z,2868
2017-07-15T04:13:14.038Z,2948
2017-07-15T04:14:24.411Z,3012
2017-07-15T04:15:34.761Z,3072
2017-07-15T04:16:45.125Z,3124
2017-07-15T04:17:54.837Z,3172
2017-07-15T04:19:05.183Z,3236
2017-07-15T04:20:15.260Z,3292
2017-07-15T04:21:25.618Z,3348
2017-07-15T04:22:35.648Z,3412
2017-07-15T04:23:45.990Z,3476
2017-07-15T04:24:56.025Z,3528
2017-07-15T04:26:06.472Z,3660
2017-07-15T04:27:16.827Z,8372
2017-07-15T04:28:27.174Z,13568
2017-07-15T04:29:37.539Z,13728
2017-07-15T04:30:47.562Z,14080
2017-07-15T04:31:57.905Z,14112
2017-07-15T04:33:08.259Z,12960
2017-07-15T04:34:18.605Z,13984
2017-07-15T04:35:28.981Z,12480
2017-07-15T04:36:39.329Z,11908
2017-07-15T04:37:49.420Z,12608
2017-07-15T04:38:59.463Z,10940
2017-07-15T04:40:09.820Z,8228
2017-07-15T04:41:20.167Z,10080
2017-07-15T04:42:30.213Z,7304
2017-07-15T04:43:40.315Z,7028
2017-07-15T04:44:50.339Z,4596
2017-07-15T04:46:00.706Z,4172
2017-07-15T04:47:11.061Z,4476
2017-07-15T04:48:21.125Z,4248
2017-07-15T04:49:31.209Z,4656
2017-07-15T04:50:40.943Z,5296
2017-07-15T04:51:51.314Z,5476
2017-07-15T04:53:01.661Z,5228
2017-07-15T04:54:12.028Z,4932
2017-07-15T04:55:22.395Z,4740
2017-07-15T04:56:32.112Z,5628
2017-07-15T04:57:42.463Z,6728
2017-07-15T04:58:52.479Z,7424
2017-07-15T05:00:02.521Z,8996
2017-07-15T05:01:12.935Z,9092
2017-07-15T05:02:23.299Z,10152
2017-07-15T05:03:33.656Z,9012
2017-07-15T05:04:44.009Z,9500
2017-07-15T05:05:53.741Z,8748
2017-07-15T05:07:04.158Z,9636
2017-07-15T05:08:14.509Z,9072
2017-07-15T05:09:24.862Z,10624
2017-07-15T05:10:35.212Z,9064
2017-07-15T05:11:45.259Z,8596
2017-07-15T05:12:55.658Z,8956
2017-07-15T05:14:05.702Z,9052
2017-07-15T05:15:15.415Z,8840
2017-07-15T05:16:25.451Z,8460
2017-07-15T05:17:35.487Z,4408
2017-07-15T05:18:45.594Z,4348
2017-07-15T05:19:55.626Z,4416
2017-07-15T05:21:06.012Z,4596
2017-07-15T05:22:16.349Z,4852
2017-07-15T05:23:26.059Z,5052
2017-07-15T05:24:36.353Z,5252
2017-07-15T05:25:46.401Z,6124
2017-07-15T05:26:56.763Z,5584
2017-07-15T05:28:06.794Z,5584
2017-07-15T05:29:17.157Z,5628
2017-07-15T05:30:27.187Z,5676
2017-07-15T05:31:37.224Z,5696
2017-07-15T05:32:47.601Z,5628
2017-07-15T05:33:57.962Z,5664
2017-07-15T05:35:08.323Z,5736
2017-07-15T05:36:18.416Z,5828
2017-07-15T05:37:28.459Z,5888
2017-07-15T05:38:38.834Z,5968
2017-07-15T05:39:49.183Z,6116
2017-07-15T05:40:59.549Z,6316
2017-07-15T05:42:09.953Z,6404
2017-07-15T05:43:20.292Z,6028
2017-07-15T05:44:30.341Z,5696
2017-07-15T05:45:40.686Z,5564
2017-07-15T05:46:50.733Z,5472
2017-07-15T05:48:01.129Z,5328
2017-07-15T05:49:11.509Z,5192
2017-07-15T05:50:21.876Z,4940
2017-07-15T05:51:31.920Z,5088
2017-07-15T05:52:42.267Z,5184
2017-07-15T05:53:52.622Z,5152
2017-07-15T05:55:02.975Z,5056
2017-07-15T05:56:13.000Z,4928
2017-07-15T05:57:23.068Z,4956
2017-07-15T05:58:33.414Z,4964
2017-07-15T05:59:43.807Z,5000
2017-07-15T06:00:54.155Z,4824
2017-07-15T06:02:04.504Z,4532
2017-07-15T06:03:14.867Z,4296
2017-07-15T06:04:25.205Z,4268
2017-07-15T06:05:35.250Z,4360
2017-07-15T06:06:45.600Z,4468
2017-07-15T06:07:55.952Z,4556
2017-07-15T06:09:06.306Z,4624
2017-07-15T06:10:16.666Z,4696
2017-07-15T06:11:27.080Z,4744
2017-07-15T06:12:37.129Z,4760
2017-07-15T06:13:47.484Z,4756
2017-07-15T06:14:57.506Z,4768
2017-07-15T06:16:07.852Z,4768
2017-07-15T06:17:18.261Z,4752
2017-07-15T06:18:28.302Z,4756
2017-07-15T06:19:38.668Z,4780
2017-07-15T06:20:49.026Z,4856
2017-07-15T06:21:59.386Z,4876
2017-07-15T06:23:09.408Z,4836
2017-07-15T06:24:19.766Z,4824
2017-07-15T06:25:29.791Z,4848
2017-07-15T06:26:40.148Z,4912
2017-07-15T06:27:50.171Z,4992
2017-07-15T06:29:00.578Z,5052
2017-07-15T06:30:10.598Z,5100
2017-07-15T06:31:20.950Z,5128
2017-07-15T06:32:30.672Z,5172
2017-07-15T06:33:40.699Z,5220
2017-07-15T06:34:51.092Z,5264
2017-07-15T06:36:01.121Z,5320
2017-07-15T06:37:11.469Z,5392
2017-07-15T06:38:21.178Z,5484
2017-07-15T06:39:31.513Z,5556
2017-07-15T06:40:41.219Z,5588
2017-07-15T06:41:51.276Z,5628
2017-07-15T06:43:01.623Z,5720
2017-07-15T06:44:11.651Z,5820
2017-07-15T06:45:22.006Z,5988
2017-07-15T06:46:32.424Z,6308
2017-07-15T06:47:42.788Z,6872
2017-07-15T06:48:52.832Z,7264
2017-07-15T06:50:02.871Z,7152
2017-07-15T06:51:13.216Z,7396
2017-07-15T06:52:23.627Z,8032
2017-07-15T06:53:33.980Z,7968
2017-07-15T06:54:44.009Z,7548
2017-07-15T06:55:54.052Z,7560
2017-07-15T06:57:03.767Z,7420
2017-07-15T06:58:13.861Z,7396
2017-07-15T06:59:24.218Z,7516
2017-07-15T07:00:34.573Z,7704
2017-07-15T07:01:44.930Z,7712
2017-07-15T07:02:54.976Z,7552
2017-07-15T07:04:05.363Z,7300
2017-07-15T07:05:15.407Z,7124
2017-07-15T07:06:25.782Z,6852
2017-07-15T07:07:35.829Z,6716
2017-07-15T07:08:45.876Z,6636
2017-07-15T07:09:56.286Z,6600
2017-07-15T07:11:06.653Z,6544
2017-07-15T07:12:16.687Z,6468
2017-07-15T07:13:27.044Z,6384
2017-07-15T07:14:37.090Z,6264
2017-07-15T07:15:47.125Z,6172
2017-07-15T07:16:57.158Z,6088
2017-07-15T07:18:06.884Z,5996
2017-07-15T07:19:17.277Z,5932
2017-07-15T07:20:27.665Z,5932
2017-07-15T07:21:38.067Z,5932
2017-07-15T07:22:48.406Z,5928
2017-07-15T07:23:58.744Z,5916
2017-07-15T07:25:09.108Z,5984
2017-07-15T07:26:19.471Z,6156
2017-07-15T07:27:29.864Z,6416
2017-07-15T07:28:40.217Z,6664
2017-07-15T07:29:50.257Z,6940
2017-07-15T07:31:00.622Z,7164
2017-07-15T07:32:10.963Z,7312
2017-07-15T07:33:21.055Z,7380
2017-07-15T07:34:31.414Z,7480
2017-07-15T07:35:41.782Z,7596
2017-07-15T07:36:52.139Z,7788
2017-07-15T07:38:02.184Z,7944
2017-07-15T07:39:12.537Z,8084
2017-07-15T07:40:22.898Z,8144
2017-07-15T07:41:32.931Z,8144
2017-07-15T07:42:43.289Z,8200
2017-07-15T07:43:53.639Z,8464
2017-07-15T07:45:03.986Z,8648
2017-07-15T07:46:14.358Z,8836
2017-07-15T07:47:24.717Z,8868
2017-07-15T07:48:35.070Z,8836
2017-07-15T07:49:45.102Z,8752
2017-07-15T07:50:55.443Z,8764
2017-07-15T07:52:05.492Z,8684
2017-07-15T07:53:15.529Z,8608
2017-07-15T07:54:25.564Z,8624
2017-07-15T07:55:35.937Z,8480
2017-07-15T07:56:46.294Z,8172
2017-07-15T07:57:56.016Z,7832
2017-07-15T07:59:06.054Z,7480
2017-07-15T08:00:16.100Z,7196
2017-07-15T08:01:26.435Z,6992
2017-07-15T08:02:36.472Z,6976
2017-07-15T08:03:46.519Z,6600
2017-07-15T08:04:56.872Z,5976
2017-07-15T08:06:07.243Z,5760
2017-07-15T08:07:17.280Z,5616
2017-07-15T08:08:27.317Z,5464
2017-07-15T08:09:37.664Z,5360
2017-07-15T08:10:48.021Z,5256
2017-07-15T08:11:58.052Z,5160
2017-07-15T08:13:08.422Z,5048
2017-07-15T08:14:18.817Z,4916
2017-07-15T08:15:29.159Z,4824
2017-07-15T08:16:39.511Z,4792
2017-07-15T08:17:49.878Z,4860
2017-07-15T08:18:59.917Z,4876
2017-07-15T08:20:10.314Z,4860
2017-07-15T08:21:20.362Z,4900
2017-07-15T08:22:30.709Z,4980
2017-07-15T08:23:40.734Z,5120
2017-07-15T08:24:51.089Z,5340
2017-07-15T08:26:01.452Z,5588
2017-07-15T08:27:11.800Z,5796
2017-07-15T08:28:21.844Z,6016
2017-07-15T08:29:32.210Z,6340
2017-07-15T08:30:42.572Z,6692
2017-07-15T08:31:52.600Z,7064
2017-07-15T08:33:02.648Z,7640
2017-07-15T08:34:12.702Z,8452
2017-07-15T08:35:22.745Z,9188
2017-07-15T08:36:33.122Z,10156
2017-07-15T08:37:43.157Z,11432
2017-07-15T08:38:53.555Z,10936
2017-07-15T08:40:03.938Z,11324
2017-07-15T08:41:13.985Z,10816
2017-07-15T08:42:24.347Z,10804
2017-07-15T08:43:34.758Z,10552
2017-07-15T08:44:45.123Z,10564
2017-07-15T08:45:55.170Z,10412
2017-07-15T08:47:04.897Z,10704
2017-07-15T08:48:15.272Z,10600
2017-07-15T08:49:25.314Z,10944
2017-07-15T08:50:35.685Z,10528
2017-07-15T08:51:46.059Z,10236
2017-07-15T08:52:56.441Z,10632
2017-07-15T08:54:06.497Z,9836
2017-07-15T08:55:16.888Z,9332
2017-07-15T08:56:26.943Z,8904
2017-07-15T08:57:37.375Z,8704
2017-07-15T08:58:46.771Z,8152
2017-07-15T08:59:57.135Z,7492
2017-07-15T09:01:07.552Z,6788
2017-07-15T09:02:17.278Z,6092
2017-07-15T09:03:27.301Z,5336
2017-07-15T09:04:37.657Z,4684
2017-07-15T09:05:48.029Z,4172
2017-07-15T09:06:58.217Z,3784
2017-07-15T09:08:08.595Z,3548
2017-07-15T09:09:18.943Z,3460
2017-07-15T09:10:28.975Z,3604
2017-07-15T09:11:39.024Z,3804
2017-07-15T09:12:49.470Z,4008
2017-07-15T09:13:59.838Z,4100
2017-07-15T09:15:09.869Z,4136
2017-07-15T09:16:19.894Z,4148
2017-07-15T09:17:30.259Z,4096
2017-07-15T09:18:40.356Z,3900
2017-07-15T09:19:50.064Z,3600
2017-07-15T09:20:59.462Z,3332
2017-07-15T09:22:09.492Z,3076
2017-07-15T09:23:19.523Z,2936
2017-07-15T09:24:29.944Z,3048
2017-07-15T09:25:40.295Z,3164
2017-07-15T09:26:50.012Z,3388
2017-07-15T09:28:00.370Z,3788
2017-07-15T09:29:10.735Z,4256
2017-07-15T09:30:20.828Z,4700
2017-07-15T09:31:31.188Z,5148
2017-07-15T09:32:41.546Z,5648
2017-07-15T09:33:53.521Z,6196
2017-07-15T09:35:05.667Z,6772
2017-07-15T09:36:17.667Z,7268
2017-07-15T09:37:30.530Z,7544
2017-07-15T09:38:42.088Z,7812
2017-07-15T09:39:54.057Z,9172
2017-07-15T09:41:04.863Z,9180
2017-07-15T09:42:15.754Z,11700
2017-07-15T09:43:26.163Z,9712
2017-07-15T09:44:37.686Z,9268
2017-07-15T09:45:48.886Z,9228
2017-07-15T09:47:02.263Z,8940
2017-07-15T09:48:15.031Z,8712
2017-07-15T09:49:25.647Z,8852
2017-07-15T09:50:36.242Z,9024
2017-07-15T09:51:46.395Z,9224
2017-07-15T09:52:56.822Z,9804
2017-07-15T09:54:07.009Z,10116
2017-07-15T09:55:16.811Z,12724
2017-07-15T09:56:26.902Z,11940
2017-07-15T09:57:37.316Z,10784
2017-07-15T09:58:48.809Z,11904
2017-07-15T10:00:00.296Z,12976
2017-07-15T10:01:11.668Z,11656
2017-07-15T10:02:22.203Z,12692
2017-07-15T10:03:32.643Z,12044
2017-07-15T10:04:43.061Z,12092
2017-07-15T10:05:53.475Z,11256
2017-07-15T10:07:03.601Z,11312
2017-07-15T10:08:14.679Z,11204
2017-07-15T10:09:25.972Z,10668
2017-07-15T10:10:36.997Z,10220
2017-07-15T10:11:48.096Z,10128
2017-07-15T10:12:58.473Z,10352
2017-07-15T10:14:07.922Z,10796
2017-07-15T10:15:17.986Z,10972
2017-07-15T10:16:28.347Z,10912
2017-07-15T10:17:38.733Z,10756
2017-07-15T10:18:49.101Z,11416
2017-07-15T10:19:59.194Z,12156
2017-07-15T10:21:09.550Z,11496
2017-07-15T10:22:19.589Z,11784
2017-07-15T10:23:29.952Z,11840
2017-07-15T10:24:40.306Z,12052
2017-07-15T10:25:50.716Z,12256
2017-07-15T10:27:00.438Z,12496
2017-07-15T10:28:10.820Z,12260
2017-07-15T10:29:21.192Z,12924
2017-07-15T10:30:31.220Z,14240
2017-07-15T10:31:41.570Z,13676
2017-07-15T10:32:51.926Z,13352
2017-07-15T10:34:01.977Z,13556
2017-07-15T10:35:12.341Z,13888
2017-07-15T10:36:22.377Z,13608
2017-07-15T10:37:32.733Z,15040
2017-07-15T10:38:43.101Z,13708
2017-07-15T10:39:53.488Z,13632
2017-07-15T10:41:03.894Z,13476
2017-07-15T10:42:13.964Z,15936
2017-07-15T10:43:24.023Z,15776
2017-07-15T10:44:34.389Z,13924
2017-07-15T10:45:44.758Z,15936
2017-07-15T10:46:55.135Z,13736
2017-07-15T10:48:05.181Z,15008
2017-07-15T10:49:15.228Z,12576
2017-07-15T10:50:25.582Z,12880
2017-07-15T10:51:35.631Z,14004
2017-07-15T10:52:46.015Z,11796
2017-07-15T10:53:55.463Z,11096
2017-07-15T10:55:05.515Z,12044
2017-07-15T10:56:15.924Z,11680
2017-07-15T10:57:26.423Z,11116
2017-07-15T10:58:36.831Z,11292
2017-07-15T10:59:47.231Z,11500
2017-07-15T11:00:57.632Z,11276
2017-07-15T11:02:07.992Z,11460
2017-07-15T11:03:18.050Z,11608
2017-07-15T11:04:28.436Z,11896
2017-07-15T11:05:38.842Z,12328
2017-07-15T11:06:49.221Z,12324
2017-07-15T11:07:59.285Z,11304
2017-07-15T11:09:09.653Z,10616
2017-07-15T11:10:20.040Z,10772
2017-07-15T11:11:30.409Z,11664
2017-07-15T11:12:40.812Z,10616
2017-07-15T11:13:51.175Z,10432
2017-07-15T11:15:01.325Z,10160
2017-07-15T11:16:11.683Z,10940
2017-07-15T11:17:22.058Z,8764
2017-07-15T11:18:32.123Z,8280
2017-07-15T11:19:42.498Z,8980
2017-07-15T11:20:53.076Z,10604
2017-07-15T11:22:03.454Z,7828
2017-07-15T11:23:13.829Z,7320
2017-07-15T11:24:23.866Z,6628
2017-07-15T11:25:34.242Z,6300
2017-07-15T11:26:44.344Z,6384
2017-07-15T11:27:54.703Z,6764
2017-07-15T11:29:05.069Z,8316
2017-07-15T11:30:15.426Z,6620
2017-07-15T11:31:27.199Z,6544
2017-07-15T11:32:38.248Z,5884
2017-07-15T11:33:48.624Z,5880
2017-07-15T11:34:59.051Z,6124
2017-07-15T11:36:09.444Z,6352
2017-07-15T11:37:19.857Z,6456
2017-07-15T11:38:30.285Z,6656
2017-07-15T11:39:40.771Z,6764
2017-07-15T11:40:51.619Z,6988
2017-07-15T11:42:01.375Z,6996
2017-07-15T11:43:11.547Z,6804
2017-07-15T11:44:22.015Z,7164
2017-07-15T11:45:32.094Z,7596
2017-07-15T11:46:42.146Z,7692
2017-07-15T11:47:52.513Z,7888
2017-07-15T11:49:02.904Z,9464
2017-07-15T11:50:13.356Z,10572
2017-07-15T11:51:23.433Z,10704
2017-07-15T11:52:33.829Z,10632
2017-07-15T11:53:45.767Z,10736
2017-07-15T11:54:57.179Z,10848
2017-07-15T11:56:10.956Z,11252
2017-07-15T11:57:24.471Z,9312
2017-07-15T11:58:37.785Z,8960
2017-07-15T11:59:49.828Z,8532
2017-07-15T12:01:01.296Z,11108
2017-07-15T12:02:11.845Z,9200
2017-07-15T12:03:22.085Z,7264
2017-07-15T12:04:32.559Z,6512
2017-07-15T12:05:42.982Z,6028
2017-07-15T12:06:53.142Z,5680
2017-07-15T12:08:03.254Z,5220
2017-07-15T12:09:13.685Z,4508
2017-07-15T12:10:24.133Z,3928
2017-07-15T12:11:34.549Z,3564
2017-07-15T12:12:45.069Z,3228
2017-07-15T12:13:55.562Z,2904
2017-07-15T12:15:05.671Z,2620
2017-07-15T12:16:16.151Z,2416
2017-07-15T12:17:26.623Z,2320
2017-07-15T12:18:37.062Z,2308
2017-07-15T12:19:47.469Z,2364
2017-07-15T12:20:57.538Z,2456
2017-07-15T12:22:07.925Z,2544
2017-07-15T12:23:17.691Z,2600
2017-07-15T12:24:28.158Z,2656
2017-07-15T12:25:38.564Z,2740
2017-07-15T12:26:49.025Z,2892
2017-07-15T12:27:59.430Z,3080
2017-07-15T12:29:09.816Z,3252
2017-07-15T12:30:20.208Z,3292
2017-07-15T12:31:30.312Z,3168
2017-07-15T12:32:40.689Z,3068
2017-07-15T12:33:51.040Z,3060
2017-07-15T12:35:01.106Z,3132
2017-07-15T12:36:11.169Z,3220
2017-07-15T12:37:21.558Z,3276
2017-07-15T12:38:31.919Z,3208
2017-07-15T12:39:42.287Z,3036
2017-07-15T12:40:52.654Z,2768
2017-07-15T12:42:02.447Z,2536
2017-07-15T12:43:12.808Z,2364
2017-07-15T12:44:23.174Z,2280
2017-07-15T12:45:33.213Z,2320
2017-07-15T12:46:43.570Z,2480
2017-07-15T12:47:53.622Z,2660
2017-07-15T12:49:03.961Z,2840
2017-07-15T12:50:14.035Z,2932
2017-07-15T12:51:24.083Z,3032
2017-07-15T12:52:34.465Z,3172
2017-07-15T12:53:44.922Z,3228
2017-07-15T12:54:55.299Z,3276
2017-07-15T12:56:05.660Z,3324
2017-07-15T12:57:16.050Z,3452
2017-07-15T12:58:26.416Z,3692
2017-07-15T12:59:36.861Z,4100
2017-07-15T13:00:46.908Z,4612
2017-07-15T13:01:57.258Z,5172
2017-07-15T13:03:07.632Z,5624
2017-07-15T13:04:17.671Z,6040
2017-07-15T13:05:28.083Z,6460
2017-07-15T13:06:38.446Z,6796
2017-07-15T13:07:48.819Z,6924
2017-07-15T13:08:58.972Z,6844
2017-07-15T13:10:09.441Z,6664
2017-07-15T13:11:20.180Z,6496
2017-07-15T13:12:30.772Z,6432
2017-07-15T13:13:41.606Z,6488
2017-07-15T13:14:51.830Z,6620
2017-07-15T13:16:02.357Z,6756
2017-07-15T13:17:12.967Z,6944
2017-07-15T13:18:23.090Z,7032
2017-07-15T13:19:33.655Z,7024
2017-07-15T13:20:44.247Z,6812
2017-07-15T13:21:57.695Z,6644
2017-07-15T13:23:13.196Z,6544
2017-07-15T13:24:28.269Z,6488
2017-07-15T13:25:45.554Z,6504
2017-07-15T13:26:59.972Z,6484
2017-07-15T13:28:15.170Z,6388
2017-07-15T13:29:30.713Z,6304
2017-07-15T13:30:44.702Z,6200
2017-07-15T13:31:59.880Z,6044
2017-07-15T13:33:14.934Z,5888
2017-07-15T13:34:29.946Z,5780
2017-07-15T13:35:45.083Z,5752
2017-07-15T13:37:01.427Z,5864
2017-07-15T13:38:18.462Z,6032
2017-07-15T13:39:36.053Z,6232
2017-07-15T13:40:51.206Z,6508
2017-07-15T13:42:08.143Z,6732
2017-07-15T13:43:23.731Z,6856
2017-07-15T13:44:39.765Z,7116
2017-07-15T13:45:52.351Z,7600
2017-07-15T13:47:06.734Z,9012
2017-07-15T13:48:23.246Z,7936
2017-07-15T13:49:39.499Z,7812
2017-07-15T13:50:50.772Z,7848
2017-07-15T13:52:03.272Z,8020
2017-07-15T13:53:17.593Z,7468
2017-07-15T13:54:29.529Z,7008
2017-07-15T13:55:44.418Z,6660
2017-07-15T13:56:57.872Z,6444
2017-07-15T13:58:11.510Z,6808
2017-07-15T13:59:25.571Z,8020
2017-07-15T14:00:40.636Z,7004
2017-07-15T14:01:52.450Z,9412
2017-07-15T14:03:06.841Z,7560
2017-07-15T14:04:24.010Z,10052
2017-07-15T14:05:38.066Z,9720
2017-07-15T14:06:52.899Z,9524
2017-07-15T14:08:08.131Z,9428
2017-07-15T14:09:23.284Z,9428
2017-07-15T14:10:39.173Z,9480
2017-07-15T14:11:52.084Z,9604
2017-07-15T14:13:05.085Z,9900
2017-07-15T14:14:19.391Z,10056
2017-07-15T14:15:33.722Z,8144
2017-07-15T14:16:45.897Z,7656
2017-07-15T14:17:58.202Z,9556
2017-07-15T14:19:10.797Z,10500
2017-07-15T14:20:25.022Z,10944
2017-07-15T14:21:37.688Z,10896
2017-07-15T14:22:53.749Z,10872
2017-07-15T14:24:07.984Z,10840
2017-07-15T14:25:24.007Z,10700
2017-07-15T14:26:39.316Z,10432
2017-07-15T14:27:54.436Z,10160
2017-07-15T14:29:12.123Z,9492
2017-07-15T14:30:27.565Z,7092
2017-07-15T14:31:42.047Z,8368
2017-07-15T14:32:59.057Z,7948
2017-07-15T14:34:14.081Z,5316
2017-07-15T14:35:28.248Z,4796
2017-07-15T14:36:43.829Z,4376
2017-07-15T14:37:59.587Z,4156
2017-07-15T14:39:15.391Z,3960
2017-07-15T14:40:30.225Z,3720
2017-07-15T14:41:46.975Z,3412
2017-07-15T14:43:04.394Z,3132
2017-07-15T14:44:19.505Z,2872
2017-07-15T14:45:35.413Z,2512
2017-07-15T14:46:48.473Z,2076
2017-07-15T14:47:58.871Z,1676
2017-07-15T14:49:09.228Z,1320
2017-07-15T14:50:19.604Z,1048
2017-07-15T14:51:30.039Z,876
2017-07-15T14:52:40.397Z,840
2017-07-15T14:53:50.744Z,936
2017-07-15T14:55:01.272Z,1052
2017-07-15T14:56:11.660Z,1120
2017-07-15T14:57:22.083Z,1156
2017-07-15T14:58:32.446Z,1152
2017-07-15T14:59:42.845Z,1240
2017-07-15T15:00:52.946Z,1292
2017-07-15T15:02:03.346Z,1412
2017-07-15T15:03:13.785Z,1624
2017-07-15T15:04:24.155Z,1884
2017-07-15T15:05:34.505Z,2656
2017-07-15T15:06:44.611Z,3516
2017-07-15T15:07:54.969Z,4136
2017-07-15T15:09:05.395Z,4496
2017-07-15T15:10:15.783Z,4600
2017-07-15T15:11:26.174Z,4680
2017-07-15T15:12:36.536Z,4724
2017-07-15T15:13:46.584Z,4636
2017-07-15T15:14:56.624Z,4368
2017-07-15T15:16:06.994Z,4016
2017-07-15T15:17:17.343Z,3588
2017-07-15T15:18:27.711Z,3220
2017-07-15T15:19:38.053Z,3080
2017-07-15T15:20:48.491Z,2944
2017-07-15T15:21:58.870Z,2832
2017-07-15T15:23:08.935Z,2768
2017-07-15T15:24:19.307Z,2672
2017-07-15T15:25:29.374Z,2532
2017-07-15T15:26:39.797Z,2484
2017-07-15T15:27:50.165Z,2420
2017-07-15T15:29:00.529Z,2256
2017-07-15T15:30:10.891Z,2052
2017-07-15T15:31:20.937Z,1896
2017-07-15T15:32:31.015Z,1736
2017-07-15T15:33:40.727Z,1648
2017-07-15T15:34:50.766Z,1572
2017-07-15T15:36:01.137Z,1480
2017-07-15T15:37:11.491Z,1392
2017-07-15T15:38:21.571Z,1336
2017-07-15T15:39:31.933Z,1424
2017-07-15T15:40:42.285Z,1656
2017-07-15T15:41:52.337Z,1900
2017-07-15T15:43:02.709Z,2156
2017-07-15T15:44:12.792Z,2404
2017-07-15T15:45:23.148Z,2644
2017-07-15T15:46:33.489Z,2816
2017-07-15T15:47:43.887Z,3084
2017-07-15T15:48:53.932Z,3560
2017-07-15T15:50:03.969Z,4096
2017-07-15T15:51:14.326Z,4720
2017-07-15T15:52:24.367Z,5144
2017-07-15T15:53:34.721Z,5224
2017-07-15T15:54:44.765Z,5100
2017-07-15T15:55:54.805Z,4964
2017-07-15T15:57:05.180Z,4956
2017-07-15T15:58:15.539Z,5204
2017-07-15T15:59:25.930Z,4864
2017-07-15T16:00:36.301Z,4972
2017-07-15T16:01:46.714Z,5008
2017-07-15T16:02:57.095Z,5036
2017-07-15T16:04:07.458Z,5248
2017-07-15T16:05:17.841Z,5192
2017-07-15T16:06:28.219Z,5048
2017-07-15T16:07:38.373Z,4760
2017-07-15T16:08:48.784Z,4648
2017-07-15T16:09:58.857Z,4736
2017-07-15T16:11:09.240Z,4784
2017-07-15T16:12:19.334Z,4820
2017-07-15T16:13:29.676Z,4704
2017-07-15T16:14:40.064Z,5544
2017-07-15T16:15:50.459Z,5276
2017-07-15T16:17:00.842Z,4960
2017-07-15T16:18:11.265Z,4068
2017-07-15T16:19:21.693Z,3800
2017-07-15T16:20:32.068Z,3696
2017-07-15T16:21:42.441Z,3660
2017-07-15T16:22:52.780Z,3712
2017-07-15T16:24:03.146Z,3744
2017-07-15T16:25:13.568Z,3720